createdAt,value
2022-11-05T00:00:52.363Z,16.45
2022-11-05T00:05:15.886Z,15.65
2022-11-05T00:09:33.420Z,14.25
2022-11-05T00:13:53.988Z,18.25
2022-11-05T00:18:15.813Z,17.52
2022-11-05T00:22:36.528Z,17.90
2022-11-05T00:26:44.242Z,19.75
2022-11-05T00:30:47.048Z,18.67
2022-11-05T00:34:51.468Z,22.70
2022-11-05T00:38:54.292Z,19.77
2022-11-05T00:43:14.548Z,21.10
2022-11-05T00:47:35.041Z,19.67
2022-11-05T00:51:39.331Z,24.33
2022-11-05T00:55:44.658Z,22.42
2022-11-05T00:59:47.643Z,21.00
2022-11-05T01:03:51.866Z,27.70
2022-11-05T01:08:02.622Z,28.98
2022-11-05T01:12:05.774Z,28.23
2022-11-05T01:16:10.581Z,27.63
2022-11-05T01:20:13.734Z,26.60
2022-11-05T01:24:17.877Z,25.17
2022-11-05T01:28:20.740Z,25.83
2022-11-05T01:32:23.597Z,26.60
2022-11-05T01:36:26.558Z,25.83
2022-11-05T01:40:30.794Z,24.80
2022-11-05T01:45:09.481Z,28.20
2022-11-05T01:49:19.042Z,24.65
2022-11-05T01:53:27.416Z,25.58
2022-11-05T01:57:33.378Z,27.50
2022-11-05T02:01:37.138Z,35.38
2022-11-05T02:05:41.726Z,26.20
2022-11-05T02:09:49.935Z,31.40
2022-11-05T02:13:54.206Z,37.03
2022-11-05T02:18:07.482Z,33.97
2022-11-05T02:22:44.627Z,30.38
2022-11-05T02:27:07.805Z,36.88
2022-11-05T02:31:18.567Z,35.00
2022-11-05T02:35:32.947Z,33.05
2022-11-05T02:39:43.977Z,35.92
2022-11-05T02:44:00.421Z,39.75
2022-11-05T02:48:14.170Z,39.15
2022-11-05T02:52:22.160Z,35.88
2022-11-05T02:56:29.337Z,33.92
2022-11-05T03:00:51.408Z,36.25
2022-11-05T03:04:55.622Z,38.75
2022-11-05T03:09:32.942Z,35.80
2022-11-05T03:13:44.852Z,35.22
2022-11-05T03:18:00.038Z,37.22
2022-11-05T03:22:09.215Z,39.67
2022-11-05T03:26:17.548Z,39.90
2022-11-05T03:30:21.431Z,41.65
2022-11-05T03:34:30.242Z,36.88
2022-11-05T03:38:38.271Z,36.10
2022-11-05T03:42:45.438Z,34.85
2022-11-05T03:46:50.779Z,32.78
2022-11-05T03:51:01.171Z,40.75
2022-11-05T03:55:06.778Z,31.80
2022-11-05T03:59:11.046Z,34.40
2022-11-05T04:03:14.091Z,34.22
2022-11-05T04:07:34.454Z,31.40
2022-11-05T04:11:56.388Z,30.23
2022-11-05T04:16:16.707Z,31.60
2022-11-05T04:20:36.865Z,32.38
2022-11-05T04:24:39.688Z,31.05
2022-11-05T04:29:06.778Z,31.02
2022-11-05T04:33:13.173Z,33.20
2022-11-05T04:37:16.233Z,25.20
2022-11-05T04:41:19.483Z,29.20
2022-11-05T04:45:24.245Z,29.35
2022-11-05T04:49:27.049Z,23.17
2022-11-05T04:53:30.981Z,32.50
2022-11-05T04:57:33.877Z,29.10
2022-11-05T05:01:38.211Z,34.60
2022-11-05T05:05:41.159Z,31.45
2022-11-05T05:09:44.000Z,27.05
2022-11-05T05:13:47.567Z,27.15
2022-11-05T05:17:53.399Z,28.70
2022-11-05T05:21:56.191Z,29.38
2022-11-05T05:26:00.478Z,26.50
2022-11-05T05:30:03.450Z,25.38
2022-11-05T05:34:09.034Z,25.35
2022-11-05T05:38:11.902Z,28.55
2022-11-05T05:42:15.213Z,26.38
2022-11-05T05:46:19.377Z,26.05
2022-11-05T05:50:23.511Z,28.80
2022-11-05T05:54:32.642Z,30.50
2022-11-05T05:58:39.754Z,26.70
2022-11-05T06:02:43.196Z,26.83
2022-11-05T06:06:48.187Z,25.10
2022-11-05T06:10:54.190Z,28.83
2022-11-05T06:14:57.062Z,26.70
2022-11-05T06:18:59.940Z,29.90
2022-11-05T06:23:04.508Z,30.40
2022-11-05T06:27:07.363Z,33.00
2022-11-05T06:31:14.098Z,27.05
2022-11-05T06:35:17.934Z,28.00
2022-11-05T06:39:22.074Z,29.38
2022-11-05T06:43:24.915Z,29.98
2022-11-05T06:47:28.033Z,27.83
2022-11-05T06:51:31.171Z,30.48
2022-11-05T06:55:35.331Z,31.13
2022-11-05T06:59:38.207Z,30.90
2022-11-05T07:03:51.964Z,26.13
2022-11-05T07:07:57.112Z,29.45
2022-11-05T07:12:01.267Z,28.42
2022-11-05T07:16:04.135Z,25.10
2022-11-05T07:20:08.806Z,24.40
2022-11-05T07:24:11.617Z,26.83
2022-11-05T07:28:15.775Z,22.85
2022-11-05T07:32:18.940Z,26.98
2022-11-05T07:36:21.755Z,28.55
2022-11-05T07:40:26.655Z,23.58
2022-11-05T07:44:30.834Z,27.10
2022-11-05T07:48:33.661Z,25.23
2022-11-05T07:52:36.470Z,22.70
2022-11-05T07:56:39.318Z,21.98
2022-11-05T08:00:43.644Z,20.35
2022-11-05T08:04:46.630Z,24.02
2022-11-05T08:08:49.482Z,21.90
2022-11-05T08:12:53.922Z,21.50
2022-11-05T08:16:59.619Z,21.48
2022-11-05T08:21:05.104Z,21.77
2022-11-05T08:25:08.999Z,25.73
2022-11-05T08:29:11.929Z,22.48
2022-11-05T08:33:16.511Z,21.27
2022-11-05T08:37:19.405Z,16.23
2022-11-05T08:41:22.256Z,19.23
2022-11-05T08:45:25.667Z,21.48
2022-11-05T08:49:29.768Z,16.80
2022-11-05T08:53:33.043Z,22.10
2022-11-05T08:57:35.838Z,18.85
2022-11-05T09:01:38.861Z,17.52
2022-11-05T09:05:43.725Z,17.35
2022-11-05T09:09:46.952Z,17.55
2022-11-05T09:13:49.758Z,44.53
2022-11-05T09:17:52.838Z,26.50
2022-11-05T09:21:59.288Z,23.70
2022-11-05T09:26:02.220Z,29.17
2022-11-05T09:30:06.030Z,19.75
2022-11-05T09:34:08.872Z,10.63
2022-11-05T09:38:13.082Z,16.00
2022-11-05T09:42:21.070Z,13.63
2022-11-05T09:46:26.490Z,16.67
2022-11-05T09:50:35.585Z,18.02
2022-11-05T09:54:40.138Z,12.27
2022-11-05T09:58:48.480Z,10.98
2022-11-05T10:02:55.519Z,14.70
2022-11-05T10:07:02.545Z,16.63
2022-11-05T10:11:12.748Z,12.68
2022-11-05T10:15:18.449Z,14.23
2022-11-05T10:19:26.108Z,12.93
2022-11-05T10:23:29.741Z,12.82
2022-11-05T10:27:38.508Z,16.30
2022-11-05T10:31:41.624Z,10.77
2022-11-05T10:35:50.157Z,15.65
2022-11-05T10:39:53.000Z,13.85
2022-11-05T10:44:04.903Z,14.80
2022-11-05T10:48:50.451Z,14.88
2022-11-05T10:53:00.471Z,11.68
2022-11-05T10:57:35.405Z,8.68
2022-11-05T11:01:38.551Z,9.48
2022-11-05T11:05:41.599Z,13.13
2022-11-05T11:09:49.617Z,9.93
2022-11-05T11:14:02.218Z,8.40
2022-11-05T11:18:26.991Z,6.25
2022-11-05T11:22:29.940Z,9.55
2022-11-05T11:26:36.971Z,7.07
2022-11-05T11:30:47.343Z,7.05
2022-11-05T11:34:53.643Z,8.57
2022-11-05T11:39:00.970Z,7.32
2022-11-05T11:43:13.504Z,7.65
2022-11-05T11:47:20.747Z,6.15
2022-11-05T11:51:32.379Z,7.20
2022-11-05T11:55:35.212Z,7.18
2022-11-05T12:00:07.213Z,8.63
2022-11-05T12:04:27.120Z,5.63
2022-11-05T12:08:45.590Z,7.63
2022-11-05T12:12:59.223Z,8.43
2022-11-05T12:17:24.270Z,8.80
2022-11-05T12:21:52.088Z,6.28
2022-11-05T12:26:03.017Z,5.63
2022-11-05T12:30:12.700Z,5.05
2022-11-05T12:34:29.406Z,5.63
2022-11-05T12:38:59.929Z,6.78
2022-11-05T12:43:14.936Z,6.65
2022-11-05T12:47:31.228Z,7.90
2022-11-05T12:51:48.999Z,8.95
2022-11-05T12:55:54.692Z,4.93
2022-11-05T13:00:02.969Z,5.72
2022-11-05T13:04:15.711Z,5.55
2022-11-05T13:08:24.253Z,3.47
2022-11-05T13:12:32.579Z,8.38
2022-11-05T13:16:38.688Z,5.80
2022-11-05T13:20:45.787Z,6.13
2022-11-05T13:24:50.844Z,5.38
2022-11-05T13:29:00.367Z,5.38
2022-11-05T13:33:06.827Z,5.85
2022-11-05T13:37:28.872Z,10.48
2022-11-05T13:41:42.669Z,8.15
2022-11-05T13:46:06.258Z,9.77
2022-11-05T13:50:32.194Z,6.53
2022-11-05T13:55:17.068Z,6.18
2022-11-05T13:59:35.694Z,4.30
2022-11-05T14:03:46.929Z,4.38
2022-11-05T14:07:50.277Z,4.03
2022-11-05T14:11:57.316Z,4.13
2022-11-05T14:16:05.482Z,4.65
2022-11-05T14:20:38.442Z,5.07
2022-11-05T14:24:44.079Z,5.63
2022-11-05T14:29:06.465Z,6.22
2022-11-05T14:33:32.073Z,3.20
2022-11-05T14:37:39.340Z,4.38
2022-11-05T14:42:01.728Z,3.70
2022-11-05T14:46:07.047Z,4.55
2022-11-05T14:50:12.794Z,8.48
2022-11-05T14:54:22.046Z,5.25
2022-11-05T14:58:31.415Z,5.50
2022-11-05T15:02:37.956Z,5.70
2022-11-05T15:06:40.796Z,4.25
2022-11-05T15:10:46.128Z,3.85
2022-11-05T15:14:56.953Z,3.58
2022-11-05T15:19:00.882Z,5.22
2022-11-05T15:23:05.773Z,6.05
2022-11-05T15:27:19.249Z,5.85
2022-11-05T15:31:32.434Z,6.93
2022-11-05T15:35:41.170Z,6.53
2022-11-05T15:39:45.608Z,5.80
2022-11-05T15:43:51.238Z,5.32
2022-11-05T15:47:54.031Z,12.23
2022-11-05T15:51:57.086Z,19.67
2022-11-05T15:56:08.998Z,13.38
2022-11-05T16:00:20.375Z,9.65
2022-11-05T16:04:26.614Z,7.60
2022-11-05T16:08:31.425Z,7.22
2022-11-05T16:12:36.674Z,5.32
2022-11-05T16:16:40.944Z,5.47
2022-11-05T16:21:01.049Z,8.02
2022-11-05T16:25:22.803Z,6.22
2022-11-05T16:29:29.408Z,5.68
2022-11-05T16:33:44.823Z,5.65
2022-11-05T16:37:52.068Z,7.35
2022-11-05T16:41:55.378Z,5.72
2022-11-05T16:45:59.950Z,11.15
2022-11-05T16:50:14.318Z,9.80
2022-11-05T16:54:17.106Z,7.32
2022-11-05T16:58:22.342Z,4.63
2022-11-05T17:02:25.509Z,5.28
2022-11-05T17:06:29.742Z,6.30
2022-11-05T17:10:32.896Z,5.22
2022-11-05T17:14:35.770Z,5.68
2022-11-05T17:18:39.116Z,3.22
2022-11-05T17:22:43.278Z,7.82
2022-11-05T17:26:46.739Z,7.53
2022-11-05T17:30:53.024Z,3.22
2022-11-05T17:34:56.399Z,3.70
2022-11-05T17:39:00.897Z,4.43
2022-11-05T17:43:05.006Z,4.63
2022-11-05T17:47:07.981Z,8.82
2022-11-05T17:51:12.377Z,4.90
2022-11-05T17:55:19.569Z,4.20
2022-11-05T17:59:22.633Z,6.60
2022-11-05T18:03:25.775Z,3.13
2022-11-05T18:07:29.025Z,3.75
2022-11-05T18:11:33.946Z,4.93
2022-11-05T18:15:40.898Z,4.45
2022-11-05T18:19:44.457Z,5.47
2022-11-05T18:23:47.441Z,3.47
2022-11-05T18:27:51.617Z,5.45
2022-11-05T18:31:54.496Z,2.58
2022-11-05T18:35:57.320Z,5.43
2022-11-05T18:40:00.669Z,4.50
2022-11-05T18:44:05.630Z,4.65
2022-11-05T18:48:08.927Z,7.80
2022-11-05T18:52:12.591Z,5.78
2022-11-05T18:56:17.726Z,5.57
2022-11-05T19:00:22.299Z,7.50
2022-11-05T19:04:26.211Z,6.03
2022-11-05T19:08:29.023Z,4.80
2022-11-05T19:12:31.921Z,2.95
2022-11-05T19:16:36.359Z,4.28
2022-11-05T19:20:40.001Z,4.85
2022-11-05T19:24:42.822Z,5.47
2022-11-05T19:28:46.246Z,3.58
2022-11-05T19:32:50.928Z,3.63
2022-11-05T19:36:53.981Z,4.45
2022-11-05T19:40:57.041Z,3.15
2022-11-05T19:45:17.035Z,4.88
2022-11-05T19:49:24.987Z,5.35
2022-11-05T19:53:27.972Z,4.30
2022-11-05T19:57:31.018Z,3.83
2022-11-05T20:01:35.171Z,4.30
2022-11-05T20:05:39.570Z,5.07
2022-11-05T20:09:42.667Z,4.95
2022-11-05T20:13:45.613Z,4.57
2022-11-05T20:17:53.195Z,5.72
2022-11-05T20:22:00.559Z,4.38
2022-11-05T20:26:05.094Z,4.28
2022-11-05T20:30:09.854Z,3.60
2022-11-05T20:34:12.740Z,4.38
2022-11-05T20:38:17.544Z,3.65
2022-11-05T20:42:20.390Z,3.85
2022-11-05T20:46:23.981Z,3.95
2022-11-05T20:50:26.828Z,7.60
2022-11-05T20:54:30.945Z,4.10
2022-11-05T20:58:33.748Z,4.72
2022-11-05T21:02:38.581Z,5.15
2022-11-05T21:06:41.532Z,6.35
2022-11-05T21:10:50.881Z,5.78
2022-11-05T21:14:54.087Z,4.75
2022-11-05T21:18:56.909Z,4.70
2022-11-05T21:22:59.856Z,5.88
2022-11-05T21:27:04.014Z,7.75
2022-11-05T21:31:08.170Z,5.53
2022-11-05T21:35:10.972Z,5.00
2022-11-05T21:39:14.098Z,6.10
2022-11-05T21:43:18.485Z,7.57
2022-11-05T21:47:21.280Z,6.00
2022-11-05T21:51:41.939Z,6.32
2022-11-05T21:56:04.731Z,5.80
2022-11-05T22:00:11.561Z,6.53
2022-11-05T22:04:14.450Z,4.53
2022-11-05T22:08:17.288Z,7.95
2022-11-05T22:12:20.146Z,9.63
2022-11-05T22:16:24.290Z,8.85
2022-11-05T22:20:27.104Z,8.27
2022-11-05T22:24:31.664Z,5.43
2022-11-05T22:28:34.452Z,6.38
2022-11-05T22:32:38.921Z,6.38
2022-11-05T22:36:41.706Z,7.70
2022-11-05T22:40:44.504Z,8.48
2022-11-05T22:44:47.292Z,7.03
2022-11-05T22:48:51.849Z,7.53
2022-11-05T22:52:54.710Z,6.57
2022-11-05T22:56:57.609Z,5.75
2022-11-05T23:01:00.718Z,7.05
2022-11-05T23:05:05.042Z,7.88
2022-11-05T23:09:31.019Z,6.95
2022-11-05T23:13:33.845Z,8.45
2022-11-05T23:17:54.282Z,5.72
2022-11-05T23:22:16.283Z,6.78
2022-11-05T23:26:36.474Z,5.55
2022-11-05T23:31:03.374Z,6.15
2022-11-05T23:35:07.095Z,7.45
2022-11-05T23:39:10.330Z,5.93
2022-11-05T23:43:30.530Z,6.10
2022-11-05T23:47:51.051Z,7.35
2022-11-05T23:51:53.871Z,6.05
2022-11-05T23:56:02.301Z,5.28
